Time;durP1;ratioP1;P1;durP2;ratioP2;P2;SDS_P1;SDS_P2;PMS_P1;PMS_P2;Temp;Humidity;BMP_temperature;BMP_pressure;BME280_temperature;BME280_humidity;BME280_pressure;Samples;Min_cycle;Max_cycle;Signal;HPM_P1;HPM_P2
2021/08/27 00:00:44;;;;;;;4.13;0.82;;;;;;;14.06;85.78;101950.63;5072145;28;20058;-37
2021/08/27 00:03:12;;;;;;;2.97;0.70;;;;;;;14.06;85.55;101955.41;5072316;28;20125;-36
2021/08/27 00:05:40;;;;;;;5.60;1.02;;;;;;;14.05;85.61;101956.53;5072097;28;20052;-34
2021/08/27 00:08:09;;;;;;;1.95;0.40;;;;;;;14.04;85.48;101955.72;5072841;28;20055;-40
2021/08/27 00:10:37;;;;;;;3.08;0.80;;;;;;;14.01;85.62;101947.88;5072313;28;20505;-42
2021/08/27 00:13:05;;;;;;;3.33;0.90;;;;;;;13.99;85.71;101947.31;5072592;28;20079;-41
2021/08/27 00:15:32;;;;;;;2.50;0.60;;;;;;;13.98;85.63;101951.31;5071497;28;20044;-39
2021/08/27 00:18:00;;;;;;;4.22;0.65;;;;;;;13.95;85.75;101951.88;5072676;28;20055;-42
2021/08/27 00:20:28;;;;;;;4.30;0.60;;;;;;;13.94;85.78;101949.38;5072387;28;20044;-37
2021/08/27 00:22:56;;;;;;;4.47;1.02;;;;;;;13.91;85.97;101947.16;5071981;28;20062;-38
2021/08/27 00:25:25;;;;;;;3.28;0.75;;;;;;;13.88;86.11;101951.38;5072061;28;20048;-37
2021/08/27 00:27:53;;;;;;;5.65;0.90;;;;;;;13.86;86.03;101952.81;5072865;28;20053;-39
2021/08/27 00:30:21;;;;;;;5.10;0.73;;;;;;;13.85;86.04;101951.13;5071355;28;20131;-40
2021/08/27 00:32:48;;;;;;;4.35;0.70;;;;;;;13.84;86.15;101953.09;5072559;28;20544;-37
2021/08/27 00:35:17;;;;;;;3.00;0.70;;;;;;;13.83;85.99;101954.22;5072229;28;20044;-39
2021/08/27 00:37:44;;;;;;;3.40;0.55;;;;;;;13.83;85.93;101953.38;5072019;28;20044;-37
2021/08/27 00:40:13;;;;;;;2.88;0.50;;;;;;;13.81;85.90;101942.47;5071832;28;20062;-41
2021/08/27 00:42:42;;;;;;;2.63;0.60;;;;;;;13.80;85.90;101960.41;5071879;28;20040;-43
2021/08/27 00:45:11;;;;;;;3.63;0.60;;;;;;;13.78;85.70;101945.88;5071335;28;20056;-38
2021/08/27 00:47:39;;;;;;;4.15;0.85;;;;;;;13.76;85.75;101943.38;5071957;28;20060;-38
2021/08/27 00:50:09;;;;;;;2.60;0.60;;;;;;;13.75;85.81;101940.84;5071788;28;20566;-41
2021/08/27 00:52:37;;;;;;;2.55;0.55;;;;;;;13.73;85.83;101948.72;5070372;28;20040;-37
2021/08/27 00:55:06;;;;;;;1.65;0.63;;;;;;;13.71;85.80;101956.59;5071839;28;20053;-41
2021/08/27 00:57:34;;;;;;;2.83;0.50;;;;;;;13.68;85.71;101946.78;5070910;28;20059;-37
2021/08/27 01:00:03;;;;;;;4.43;0.88;;;;;;;13.67;85.89;101947.06;5071767;28;20127;-37
2021/08/27 01:02:31;;;;;;;3.60;0.60;;;;;;;13.64;85.65;101944.84;5071263;28;20037;-40
2021/08/27 01:04:59;;;;;;;5.18;0.60;;;;;;;13.60;85.76;101939.00;5071126;28;20071;-40
2021/08/27 01:07:31;;;;;;;4.88;0.65;;;;;;;13.61;85.95;101948.25;5071238;28;20072;-39
2021/08/27 01:10:04;;;;;;;3.07;0.60;;;;;;;13.58;85.71;101937.63;5071823;28;20099;-38
2021/08/27 01:12:40;;;;;;;3.17;0.60;;;;;;;13.57;85.77;101933.16;5070787;28;20294;-36
2021/08/27 01:15:13;;;;;;;2.67;0.70;;;;;;;13.57;85.87;101935.97;5071769;28;20131;-41
2021/08/27 01:17:44;;;;;;;3.47;0.70;;;;;;;13.55;85.63;101939.06;5070940;28;20514;-34
2021/08/27 01:20:33;;;;;;;3.90;0.75;;;;;;;13.55;85.89;101933.44;5071362;28;20049;-41
2021/08/27 01:23:24;;;;;;;2.40;0.70;;;;;;;13.54;85.99;101944.97;5071183;28;20044;-40
2021/08/27 01:25:54;;;;;;;3.72;0.70;;;;;;;13.50;85.85;101933.47;5047985;28;20465;-37
2021/08/27 01:28:24;;;;;;;2.22;0.50;;;;;;;13.51;85.84;101939.94;5068820;28;20051;-37
2021/08/27 01:31:06;;;;;;;2.42;0.60;;;;;;;13.52;85.88;101930.38;5071510;28;20454;-40
2021/08/27 01:33:35;;;;;;;2.53;0.40;;;;;;;13.48;86.02;101929.28;5070563;28;20041;-36
2021/08/27 01:36:06;;;;;;;3.90;0.50;;;;;;;13.49;86.05;101930.97;5071057;28;20052;-38
2021/08/27 01:38:38;;;;;;;3.95;0.65;;;;;;;13.49;86.08;101928.16;5069581;28;20048;-37
2021/08/27 01:41:10;;;;;;;3.05;0.70;;;;;;;13.48;86.26;101932.09;5050635;28;20065;-39
2021/08/27 01:43:41;;;;;;;3.72;0.60;;;;;;;13.47;86.19;101930.41;5066907;28;20032;-38
2021/08/27 01:46:11;;;;;;;2.63;0.50;;;;;;;13.44;86.22;101926.22;5071249;28;20131;-40
2021/08/27 01:48:45;;;;;;;2.65;0.63;;;;;;;13.43;86.13;101930.16;5070275;28;20041;-42
2021/08/27 01:51:16;;;;;;;2.50;0.60;;;;;;;13.43;86.06;101931.00;5071031;28;20455;-43
2021/08/27 01:53:44;;;;;;;1.80;0.40;;;;;;;13.41;86.18;101938.88;5070377;28;20049;-43
2021/08/27 01:56:13;;;;;;;2.55;0.57;;;;;;;13.41;86.18;101936.06;5070955;28;20127;-35
2021/08/27 01:58:41;;;;;;;2.08;0.50;;;;;;;13.38;86.07;101950.69;5070516;28;20052;-39
2021/08/27 02:01:09;;;;;;;2.25;0.47;;;;;;;13.38;86.02;101939.47;5070428;28;20080;-41
2021/08/27 02:03:38;;;;;;;2.22;0.50;;;;;;;13.38;86.18;101945.09;5070592;28;20128;-38
2021/08/27 02:06:08;;;;;;;3.38;0.60;;;;;;;13.37;86.21;101942.56;5070640;28;20418;-37
2021/08/27 02:08:38;;;;;;;2.95;0.60;;;;;;;13.36;86.16;101947.34;5069975;28;20048;-38
2021/08/27 02:11:06;;;;;;;2.72;0.60;;;;;;;13.35;86.20;101947.63;5070994;28;20415;-40
2021/08/27 02:13:35;;;;;;;2.95;0.60;;;;;;;13.35;86.29;101948.47;5070815;28;20036;-40
2021/08/27 02:16:06;;;;;;;2.75;0.52;;;;;;;13.35;86.32;101956.88;5070000;28;20149;-38
2021/08/27 02:18:34;;;;;;;3.08;0.60;;;;;;;13.35;86.69;101944.81;5070389;28;20049;-42
2021/08/27 02:21:05;;;;;;;2.25;0.60;;;;;;;13.37;86.67;101948.19;5070729;28;20049;-42
2021/08/27 02:23:35;;;;;;;3.63;0.90;;;;;;;13.38;86.39;101947.88;5070308;28;20398;-41
2021/08/27 02:26:05;;;;;;;3.17;0.50;;;;;;;13.42;86.50;101954.56;5070551;28;20081;-44
2021/08/27 02:28:35;;;;;;;3.13;0.70;;;;;;;13.44;86.86;101951.47;5070595;28;20463;-39
2021/08/27 02:31:04;;;;;;;2.83;0.70;;;;;;;13.48;86.60;101954.53;5066681;28;20159;-41
2021/08/27 02:33:33;;;;;;;2.33;0.50;;;;;;;13.52;86.59;101964.03;5070531;28;20040;-44
2021/08/27 02:36:02;;;;;;;4.25;1.38;;;;;;;13.55;86.45;101966.25;5068773;28;20040;-40
2021/08/27 02:38:33;;;;;;;1.83;0.68;;;;;;;13.58;86.53;101963.72;5071209;28;20090;-39
2021/08/27 02:41:01;;;;;;;2.20;0.55;;;;;;;13.61;86.48;101956.66;5073868;28;20544;-38
2021/08/27 02:43:30;;;;;;;2.95;0.50;;;;;;;13.65;86.50;101964.19;5073847;28;20549;-39
2021/08/27 02:45:58;;;;;;;4.22;1.00;;;;;;;13.67;86.83;101963.91;5074118;28;20064;-38
2021/08/27 02:48:25;;;;;;;4.68;0.80;;;;;;;13.67;86.68;101956.34;5074527;28;20063;-39
2021/08/27 02:51:00;;;;;;;2.35;0.63;;;;;;;13.70;86.65;101963.31;5073471;28;20140;-40
2021/08/27 02:53:30;;;;;;;2.78;0.60;;;;;;;13.70;86.76;101960.53;5074257;28;20541;-40
2021/08/27 02:56:03;;;;;;;3.05;0.70;;;;;;;13.70;86.77;101960.53;5073649;28;20414;-37
2021/08/27 02:58:36;;;;;;;1.92;0.50;;;;;;;13.70;86.78;101952.94;5073722;28;20078;-41
2021/08/27 03:01:09;;;;;;;2.17;0.52;;;;;;;13.69;86.73;101951.28;5073722;28;20095;-42
2021/08/27 03:03:39;;;;;;;3.13;0.70;;;;;;;13.70;86.78;101961.38;5074131;28;20110;-39
2021/08/27 03:06:11;;;;;;;3.30;0.70;;;;;;;13.69;86.92;101956.88;5073147;28;20065;-40
2021/08/27 03:08:44;;;;;;;3.60;0.73;;;;;;;13.68;86.83;101963.63;5073941;28;20502;-36
2021/08/27 03:11:17;;;;;;;2.50;0.50;;;;;;;13.68;86.83;101960.81;5073172;28;20045;-38
2021/08/27 03:13:49;;;;;;;;;;;;;;;13.63;86.54;101963.66;5074414;28;20048;-39
2021/08/27 03:16:18;;;;;;;1.52;0.50;;;;;;;13.59;87.21;101964.56;5073430;28;20256;-40
2021/08/27 03:18:52;;;;;;;2.25;0.50;;;;;;;13.62;86.91;101952.72;5073203;28;20139;-41
2021/08/27 03:21:27;;;;;;;3.63;0.70;;;;;;;13.63;86.75;101960.84;5073495;28;20056;-36
2021/08/27 03:24:01;;;;;;;2.53;0.73;;;;;;;13.63;87.04;101963.66;5072636;28;20048;-39
2021/08/27 03:26:31;;;;;;;2.80;1.02;;;;;;;13.62;86.74;101958.34;5072713;28;20048;-38
2021/08/27 03:29:04;;;;;;;2.55;0.57;;;;;;;13.62;86.71;101956.38;5073614;28;20049;-37
2021/08/27 03:31:34;;;;;;;3.33;0.60;;;;;;;13.62;86.68;101958.34;5073017;28;20072;-36
2021/08/27 03:34:04;;;;;;;3.78;0.70;;;;;;;13.61;86.75;101962.25;5072902;28;20063;-40
2021/08/27 03:36:33;;;;;;;3.50;0.60;;;;;;;13.62;86.60;101958.34;5073194;28;20106;-35
2021/08/27 03:39:04;;;;;;;3.45;0.70;;;;;;;13.62;86.58;101961.97;5073457;28;20102;-34
2021/08/27 03:41:34;;;;;;;3.60;0.80;;;;;;;13.63;86.55;101960.00;5072268;28;20501;-42
2021/08/27 03:44:05;;;;;;;2.97;0.70;;;;;;;13.63;86.39;101957.22;5073507;28;20048;-36
2021/08/27 03:46:33;;;;;;;3.85;1.10;;;;;;;13.63;86.29;101958.03;5072466;28;20044;-38
2021/08/27 03:49:00;;;;;;;3.50;0.60;;;;;;;13.63;86.36;101960.84;5072848;28;20055;-40
2021/08/27 03:51:28;;;;;;;2.80;0.60;;;;;;;13.61;86.26;101954.69;5072972;28;20055;-38
2021/08/27 03:54:15;;;;;;;1.33;0.50;;;;;;;13.59;86.29;101953.34;5061497;28;20045;-38
2021/08/27 03:56:43;;;;;;;1.95;0.60;;;;;;;13.59;86.29;101956.94;5072703;28;20044;-39
2021/08/27 03:59:13;;;;;;;3.92;0.80;;;;;;;13.60;86.12;101957.78;5072878;28;20048;-40
2021/08/27 04:01:41;;;;;;;3.13;0.82;;;;;;;13.59;86.00;101948.53;5071940;28;20056;-39
2021/08/27 04:04:19;;;;;;;3.10;0.65;;;;;;;13.62;86.21;101952.72;5072887;28;20044;-35
2021/08/27 04:06:53;;;;;;;2.22;0.60;;;;;;;13.62;86.08;101950.75;5072552;28;20052;-40
2021/08/27 04:09:21;;;;;;;3.50;0.73;;;;;;;13.63;85.91;101954.41;5069343;28;20059;-40
2021/08/27 04:11:49;;;;;;;2.75;0.55;;;;;;;13.64;85.82;101954.09;5071447;28;20449;-39
2021/08/27 04:14:18;;;;;;;4.97;0.80;;;;;;;13.65;85.83;101952.16;5072667;28;20048;-40
2021/08/27 04:16:47;;;;;;;3.17;0.80;;;;;;;13.64;85.62;101951.31;5072685;28;20063;-41
2021/08/27 04:19:15;;;;;;;3.85;0.77;;;;;;;13.65;85.81;101957.75;5072182;28;20062;-36
2021/08/27 04:21:44;;;;;;;3.47;0.98;;;;;;;13.64;85.71;101954.09;5072259;28;20059;-38
2021/08/27 04:24:12;;;;;;;4.82;0.68;;;;;;;13.66;85.80;101948.22;5072331;28;20048;-41
2021/08/27 04:26:40;;;;;;;4.45;0.90;;;;;;;13.66;85.88;101951.00;5072367;28;20044;-40
2021/08/27 04:29:11;;;;;;;3.42;0.93;;;;;;;13.67;86.06;101949.88;5071574;28;20044;-41
2021/08/27 04:31:41;;;;;;;3.55;0.80;;;;;;;13.68;86.47;101954.38;5070704;28;20425;-37
2021/08/27 04:34:08;;;;;;;3.92;0.75;;;;;;;13.69;86.61;101951.28;5072166;28;20479;-37
2021/08/27 04:36:36;;;;;;;3.75;0.80;;;;;;;13.71;86.90;101950.97;5071492;28;20037;-40
2021/08/27 04:39:04;;;;;;;4.00;0.90;;;;;;;13.72;86.87;101958.25;5071711;28;20132;-37
2021/08/27 04:41:32;;;;;;;3.22;0.77;;;;;;;13.74;87.22;101953.19;5072134;28;20097;-40
2021/08/27 04:44:00;;;;;;;3.03;0.73;;;;;;;13.75;87.39;101958.53;5070034;28;20114;-33
2021/08/27 04:46:28;;;;;;;3.47;0.80;;;;;;;13.78;87.74;101962.72;5071008;28;20044;-39
2021/08/27 04:48:57;;;;;;;3.88;0.68;;;;;;;13.79;87.68;101953.13;5071563;28;20049;-36
2021/08/27 04:51:25;;;;;;;4.32;1.00;;;;;;;13.81;87.75;101962.09;5071335;28;20059;-40
2021/08/27 04:53:53;;;;;;;5.20;0.88;;;;;;;13.83;87.71;101957.03;5070771;28;20393;-38
2021/08/27 04:56:20;;;;;;;2.38;0.63;;;;;;;13.86;87.93;101962.06;5068862;28;20040;-45
2021/08/27 04:58:49;;;;;;;3.80;0.70;;;;;;;13.88;87.76;101965.41;5070625;28;20041;-41
2021/08/27 05:01:17;;;;;;;3.33;0.75;;;;;;;13.91;87.73;101961.19;5071076;28;20052;-41
2021/08/27 05:03:45;;;;;;;2.88;0.80;;;;;;;13.92;87.68;101962.84;5070952;28;20060;-42
2021/08/27 05:06:17;;;;;;;2.70;0.80;;;;;;;13.93;87.84;101965.38;5071875;28;20399;-36
2021/08/27 05:08:45;;;;;;;3.72;0.88;;;;;;;13.96;88.09;101958.34;5071374;28;20057;-40
2021/08/27 05:11:13;;;;;;;3.28;0.88;;;;;;;13.98;88.06;101961.69;5068179;28;20045;-37
2021/08/27 05:13:41;;;;;;;3.22;0.70;;;;;;;13.99;87.93;101957.72;5069152;28;20079;-39
2021/08/27 05:16:09;;;;;;;3.00;0.70;;;;;;;14.02;87.97;101962.75;5068687;28;20447;-37
2021/08/27 05:18:37;;;;;;;2.90;0.98;;;;;;;14.05;88.27;101956.53;5068881;28;20036;-37
2021/08/27 05:21:05;;;;;;;3.97;0.98;;;;;;;14.11;88.51;101958.19;5068951;28;20536;-42
2021/08/27 05:23:34;;;;;;;4.55;1.13;;;;;;;14.16;88.46;101960.09;5069682;28;20096;-39
2021/08/27 05:26:04;;;;;;;4.53;1.15;;;;;;;14.19;88.60;101965.13;5069511;28;20408;-40
2021/08/27 05:28:32;;;;;;;5.45;1.38;;;;;;;14.24;88.78;101960.28;5071404;28;20071;-40
2021/08/27 05:31:00;;;;;;;5.65;1.20;;;;;;;14.29;88.67;101968.66;5070908;28;20064;-34
2021/08/27 05:33:27;;;;;;;4.07;0.90;;;;;;;14.33;88.49;101968.91;5070843;28;20044;-39
2021/08/27 05:35:55;;;;;;;7.72;1.42;;;;;;;14.39;88.74;101973.31;5070643;28;20048;-42
2021/08/27 05:38:23;;;;;;;7.43;1.30;;;;;;;14.42;88.50;101973.56;5070972;28;20056;-39
2021/08/27 05:40:52;;;;;;;4.82;1.13;;;;;;;14.48;88.09;101968.75;5070323;28;20072;-41
2021/08/27 05:43:20;;;;;;;4.57;1.10;;;;;;;14.51;87.48;101970.13;5071025;28;20048;-39
2021/08/27 05:45:48;;;;;;;5.30;1.20;;;;;;;14.57;87.17;101971.75;5070178;28;20308;-41
2021/08/27 05:48:16;;;;;;;4.85;1.42;;;;;;;14.63;87.16;101973.34;5070998;28;20422;-43
2021/08/27 05:50:44;;;;;;;4.25;1.40;;;;;;;14.72;87.15;101985.59;5070650;28;20051;-37
2021/08/27 05:53:12;;;;;;;4.30;1.38;;;;;;;14.81;87.25;101984.63;5074931;28;20056;-41
2021/08/27 05:55:40;;;;;;;5.97;1.40;;;;;;;14.90;87.69;101989.59;5085821;28;20530;-41
2021/08/27 05:58:09;;;;;;;8.18;1.83;;;;;;;14.99;87.97;101987.78;5070792;28;20074;-36
2021/08/27 06:00:41;;;;;;;7.85;1.88;;;;;;;15.05;88.13;101995.00;5070113;28;20513;-35
2021/08/27 06:03:09;;;;;;;8.80;1.88;;;;;;;15.12;88.49;101992.66;5070824;28;20049;-36
2021/08/27 06:05:38;;;;;;;7.25;1.80;;;;;;;15.16;88.23;101991.78;5070577;28;20491;-43
2021/08/27 06:08:06;;;;;;;6.70;1.50;;;;;;;15.22;87.78;101995.31;5069081;28;20448;-35
2021/08/27 06:10:34;;;;;;;6.28;1.92;;;;;;;15.26;87.19;101992.75;5070786;28;20502;-38
2021/08/27 06:13:02;;;;;;;8.02;1.85;;;;;;;15.31;87.22;101987.91;5072873;28;20055;-43
2021/08/27 06:15:32;;;;;;;10.23;1.77;;;;;;;15.39;87.16;101992.81;5074345;28;20051;-40
2021/08/27 06:18:00;;;;;;;8.15;1.80;;;;;;;15.48;87.09;101991.00;5074165;28;20049;-42
2021/08/27 06:20:28;;;;;;;7.70;2.25;;;;;;;15.60;87.19;101996.19;5074781;28;20162;-37
2021/08/27 06:22:56;;;;;;;6.80;1.63;;;;;;;15.70;86.97;101995.22;5073913;28;20064;-41
2021/08/27 06:25:24;;;;;;;5.57;1.75;;;;;;;15.79;86.62;101991.38;5074647;28;20044;-42
2021/08/27 06:27:52;;;;;;;6.85;1.90;;;;;;;15.89;86.10;101990.38;5074382;28;20044;-41
2021/08/27 06:30:20;;;;;;;6.15;2.20;;;;;;;15.99;85.64;101990.19;5073870;28;20082;-41
2021/08/27 06:32:49;;;;;;;10.05;2.38;;;;;;;16.13;85.30;101996.72;5074097;28;20088;-40
2021/08/27 06:35:17;;;;;;;9.25;2.22;;;;;;;16.25;84.29;101993.38;5073950;28;20061;-41
2021/08/27 06:40:31;;;;;;;8.70;2.10;;;;;;;16.51;84.43;101997.41;5074262;28;20127;-40
2021/08/27 06:42:59;;;;;;;6.50;2.00;;;;;;;16.68;84.14;101998.81;5073228;28;20040;-34
2021/08/27 06:45:26;;;;;;;6.28;1.95;;;;;;;16.83;83.58;102009.75;5073609;28;20074;-37
2021/08/27 06:47:56;;;;;;;7.20;1.92;;;;;;;16.95;82.56;101995.16;5072025;28;20075;-41
2021/08/27 06:50:24;;;;;;;5.95;1.60;;;;;;;17.09;81.79;101995.97;5072722;28;20571;-37
2021/08/27 06:52:52;;;;;;;4.25;1.45;;;;;;;17.31;81.45;102000.81;5074008;28;20063;-37
2021/08/27 06:55:20;;;;;;;9.30;1.55;;;;;;;17.61;81.25;102000.09;5073614;28;20147;-41
2021/08/27 06:57:48;;;;;;;5.65;1.60;;;;;;;17.89;79.80;101992.38;5072185;28;20052;-43
2021/08/27 07:00:17;;;;;;;7.30;1.67;;;;;;;18.07;78.28;101999.00;5073016;28;20055;-37
2021/08/27 07:02:44;;;;;;;4.47;1.25;;;;;;;18.31;76.71;102002.31;5072971;28;20579;-39
2021/08/27 07:05:15;;;;;;;6.70;1.33;;;;;;;18.72;76.07;101999.22;5072350;28;20102;-35
2021/08/27 07:07:43;;;;;;;8.77;1.70;;;;;;;19.12;73.89;102014.16;5072868;28;20044;-37
2021/08/27 07:10:11;;;;;;;4.75;1.40;;;;;;;19.38;72.72;102004.88;5071833;28;20147;-34
2021/08/27 07:12:39;;;;;;;7.05;1.67;;;;;;;19.66;71.74;102013.91;5073195;28;20052;-39
2021/08/27 07:15:08;;;;;;;6.63;1.63;;;;;;;19.80;71.13;102015.41;5072629;28;20147;-36
2021/08/27 07:17:36;;;;;;;5.25;1.40;;;;;;;19.76;71.05;102017.25;5072404;28;20078;-38
2021/08/27 07:20:05;;;;;;;4.22;1.20;;;;;;;19.64;70.13;102013.41;5072470;28;20059;-41
2021/08/27 07:22:34;;;;;;;4.18;1.60;;;;;;;19.55;69.88;102010.59;5072785;28;20063;-37
2021/08/27 07:25:02;;;;;;;4.47;1.65;;;;;;;19.57;70.36;102023.25;5070971;28;20055;-43
2021/08/27 07:27:29;;;;;;;8.70;1.98;;;;;;;19.72;69.45;102021.09;5073065;28;20048;-42
2021/08/27 07:29:57;;;;;;;6.05;1.70;;;;;;;19.90;69.47;102014.25;5072667;28;20058;-36
2021/08/27 07:32:25;;;;;;;6.57;1.67;;;;;;;20.27;69.17;102022.03;5072220;28;20049;-39
2021/08/27 07:34:53;;;;;;;7.68;1.88;;;;;;;20.67;68.23;102023.75;5072266;28;20087;-39
2021/08/27 07:37:20;;;;;;;5.22;1.30;;;;;;;21.11;67.28;102016.72;5072712;28;20053;-40
2021/08/27 07:39:49;;;;;;;4.97;1.60;;;;;;;21.55;66.02;102018.97;5071669;28;20045;-39
2021/08/27 07:42:18;;;;;;;4.50;1.55;;;;;;;21.63;64.25;102022.91;5072746;28;20388;-40
2021/08/27 07:44:45;;;;;;;6.90;1.50;;;;;;;21.62;63.59;102022.06;5072161;28;20044;-38
2021/08/27 07:47:13;;;;;;;5.15;1.60;;;;;;;21.45;62.61;102024.22;5072083;28;20113;-44
2021/08/27 07:49:41;;;;;;;4.25;1.80;;;;;;;21.36;63.82;102026.28;5071760;28;20081;-40
2021/08/27 07:52:09;;;;;;;5.63;1.67;;;;;;;21.60;64.01;102021.56;5061563;28;20568;-38
2021/08/27 07:54:36;;;;;;;7.65;2.03;;;;;;;22.03;61.46;102011.88;5068757;28;20096;-39
2021/08/27 07:57:06;;;;;;;5.70;1.58;;;;;;;22.19;60.04;102017.72;5072241;28;20518;-37
2021/08/27 07:59:34;;;;;;;4.75;1.75;;;;;;;22.09;60.16;102019.00;5071376;28;20056;-37
2021/08/27 08:02:01;;;;;;;7.28;2.20;;;;;;;22.35;60.57;102021.59;5068375;28;20052;-39
2021/08/27 08:04:29;;;;;;;6.28;2.00;;;;;;;22.97;59.12;102020.53;5072063;28;20052;-40
2021/08/27 08:06:57;;;;;;;4.28;1.58;;;;;;;23.46;57.47;102027.00;5071324;28;20053;-43
2021/08/27 08:09:25;;;;;;;4.57;1.35;;;;;;;23.63;56.92;102026.78;5071884;28;20076;-40
2021/08/27 08:11:53;;;;;;;9.50;1.90;;;;;;;23.67;56.73;102024.88;5071591;28;20063;-40
2021/08/27 08:14:22;;;;;;;6.35;1.70;;;;;;;23.73;55.93;102034.00;5071367;28;20136;-43
2021/08/27 08:16:50;;;;;;;4.38;1.45;;;;;;;23.93;55.44;102026.47;5071380;28;20415;-39
2021/08/27 08:19:18;;;;;;;5.28;1.65;;;;;;;24.20;54.51;102034.16;5071865;28;20136;-37
2021/08/27 08:21:45;;;;;;;4.22;1.48;;;;;;;24.34;54.07;102026.06;5069824;28;20043;-36
2021/08/27 08:24:13;;;;;;;8.48;2.10;;;;;;;24.39;53.41;102027.78;5071406;28;20049;-42
2021/08/27 08:26:41;;;;;;;5.75;1.70;;;;;;;24.49;52.93;102027.28;5071821;28;20499;-40
2021/08/27 08:29:09;;;;;;;5.25;1.65;;;;;;;24.85;52.52;102023.34;5071745;28;20139;-38
2021/08/27 08:31:38;;;;;;;4.13;1.65;;;;;;;25.24;51.54;102029.22;5071255;28;20045;-40
2021/08/27 08:34:06;;;;;;;6.63;2.05;;;;;;;25.44;50.50;102025.22;5072138;28;20052;-43
2021/08/27 08:36:34;;;;;;;4.40;1.40;;;;;;;25.23;50.34;102024.72;5070263;28;20032;-41
2021/08/27 08:39:02;;;;;;;6.45;1.70;;;;;;;24.93;51.01;102030.91;5071569;28;20088;-42
2021/08/27 08:41:30;;;;;;;5.25;1.45;;;;;;;24.93;51.42;102022.31;5071810;28;20044;-39
2021/08/27 08:43:58;;;;;;;6.60;2.05;;;;;;;25.36;51.98;102029.13;5071331;28;20053;-41
2021/08/27 08:46:26;;;;;;;4.18;1.65;;;;;;;25.96;50.45;102015.38;5069685;28;20029;-39
2021/08/27 08:48:56;;;;;;;5.85;1.90;;;;;;;26.41;48.86;102015.50;5069415;28;20147;-37
2021/08/27 08:51:26;;;;;;;5.10;1.60;;;;;;;26.32;48.06;102019.81;5069653;28;20052;-41
2021/08/27 08:53:56;;;;;;;5.22;1.67;;;;;;;25.99;47.79;102023.19;5069787;28;20074;-40
2021/08/27 08:56:23;;;;;;;4.68;1.63;;;;;;;25.58;48.71;102019.03;5068661;28;20052;-41
2021/08/27 08:58:51;;;;;;;5.97;1.80;;;;;;;25.27;48.79;102017.06;5069809;28;20099;-38
2021/08/27 09:01:19;;;;;;;6.40;2.15;;;;;;;25.06;49.34;102018.19;5070796;28;20139;-38
2021/08/27 09:03:48;;;;;;;6.45;1.83;;;;;;;25.08;49.16;102020.69;5070652;28;20068;-36
2021/08/27 09:06:17;;;;;;;5.10;1.83;;;;;;;25.03;49.36;102012.38;5071718;28;20153;-43
2021/08/27 09:08:47;;;;;;;6.78;1.98;;;;;;;25.14;50.84;102010.63;5071003;28;20126;-41
2021/08/27 09:11:18;;;;;;;5.60;1.50;;;;;;;25.45;50.57;102008.91;5071164;28;20132;-43
2021/08/27 09:13:47;;;;;;;6.47;2.10;;;;;;;25.91;49.63;102007.94;5071162;28;20447;-38
2021/08/27 09:16:16;;;;;;;5.88;1.77;;;;;;;26.39;48.84;102005.63;5071292;28;20040;-40
2021/08/27 09:18:50;;;;;;;5.32;1.45;;;;;;;26.89;47.42;102006.53;5070354;28;20060;-43
2021/08/27 09:21:37;;;;;;;4.43;1.50;;;;;;;27.26;45.87;102009.63;5071010;28;20090;-40
2021/08/27 09:24:21;;;;;;;5.78;1.73;;;;;;;27.37;45.06;102007.78;5070523;28;20442;-37
2021/08/27 09:26:52;;;;;;;5.57;1.70;;;;;;;27.39;45.43;102016.78;5051447;28;20059;-40
2021/08/27 09:29:39;;;;;;;6.00;1.88;;;;;;;27.67;44.86;102017.25;5068403;28;20055;-40
2021/08/27 09:32:25;;;;;;;4.22;1.77;;;;;;;27.99;43.70;102022.56;5070909;28;20044;-41
2021/08/27 09:35:06;;;;;;;3.55;1.30;;;;;;;28.21;43.63;102018.78;5070924;28;20086;-34
2021/08/27 09:37:42;;;;;;;5.43;1.73;;;;;;;28.39;43.07;102024.72;5071098;28;20040;-37
2021/08/27 09:40:12;;;;;;;4.53;1.50;;;;;;;28.48;42.77;102022.38;5069691;28;20084;-41
2021/08/27 09:42:42;;;;;;;5.50;1.95;;;;;;;28.38;42.27;102012.41;5071194;28;20119;-39
2021/08/27 09:45:11;;;;;;;6.25;1.70;;;;;;;28.25;42.06;102022.50;5069757;28;20044;-39
2021/08/27 09:47:57;;;;;;;4.22;1.30;;;;;;;28.15;42.00;102013.75;5070708;28;20044;-43
2021/08/27 09:50:28;;;;;;;4.10;1.48;;;;;;;28.14;42.40;102021.53;5070662;28;20075;-41
2021/08/27 09:52:59;;;;;;;3.58;1.17;;;;;;;28.02;42.37;102021.78;5070591;28;20056;-38
2021/08/27 09:55:28;;;;;;;4.75;1.40;;;;;;;27.98;42.78;102018.03;5070587;28;20049;-40
2021/08/27 09:58:04;;;;;;;4.43;1.40;;;;;;;28.09;42.25;102016.97;5070749;28;20501;-37
2021/08/27 10:00:35;;;;;;;5.55;1.70;;;;;;;27.81;42.48;102015.78;5069842;28;20048;-38
2021/08/27 10:03:16;;;;;;;4.07;1.50;;;;;;;27.45;42.29;102009.50;5070887;28;20049;-43
2021/08/27 10:05:47;;;;;;;7.35;2.03;;;;;;;27.33;43.42;102013.44;5070362;28;20144;-38
2021/08/27 10:08:20;;;;;;;5.43;1.70;;;;;;;26.97;43.45;102009.19;5070218;28;20052;-41
2021/08/27 10:10:51;;;;;;;6.97;1.90;;;;;;;26.39;44.49;102014.22;5070524;28;20049;-40
2021/08/27 10:13:18;;;;;;;3.17;1.50;;;;;;;25.86;46.21;102018.84;5070126;28;20447;-38
2021/08/27 10:15:46;;;;;;;6.03;2.20;;;;;;;25.30;46.89;102013.47;5070595;28;20051;-36
2021/08/27 10:18:14;;;;;;;5.50;1.92;;;;;;;24.78;47.75;102023.13;5070795;28;20044;-40
2021/08/27 10:20:45;;;;;;;5.93;1.70;;;;;;;24.33;49.17;102009.31;5069684;28;20236;-40
2021/08/27 10:23:14;;;;;;;6.00;2.00;;;;;;;23.87;49.94;102010.78;5070684;28;20048;-38
2021/08/27 10:25:43;;;;;;;6.85;2.17;;;;;;;23.42;51.52;102026.06;5070186;28;20051;-40
2021/08/27 10:28:11;;;;;;;5.97;1.65;;;;;;;23.09;53.87;102011.16;5070061;28;20037;-39
2021/08/27 10:30:54;;;;;;;5.22;1.50;;;;;;;22.63;55.53;102022.59;5070261;28;20051;-42
2021/08/27 10:34:04;;;;;;;4.97;1.98;;;;;;;22.15;56.92;102023.31;5070461;28;20055;-41
2021/08/27 10:36:49;;;;;;;5.05;1.33;;;;;;;21.66;58.84;102036.41;5069894;28;20044;-41
2021/08/27 10:39:32;;;;;;;4.38;1.30;;;;;;;21.35;60.11;102033.16;5050591;28;20041;-40
2021/08/27 10:42:01;;;;;;;3.72;1.08;;;;;;;21.13;60.91;102032.25;5067410;28;20071;-40
2021/08/27 10:44:48;;;;;;;4.93;1.40;;;;;;;20.96;61.02;102038.84;5070412;28;20132;-41
2021/08/27 10:47:16;;;;;;;3.83;1.00;;;;;;;20.81;62.19;102039.38;5070326;28;20063;-37
2021/08/27 10:49:57;;;;;;;6.95;1.15;;;;;;;20.78;62.42;102037.25;5070004;28;20136;-37
2021/08/27 10:52:29;;;;;;;7.18;1.38;;;;;;;20.66;62.94;102037.13;5069873;28;20052;-37
2021/08/27 10:55:10;;;;;;;6.05;1.05;;;;;;;20.47;63.50;102033.84;5070284;28;20048;-38
2021/08/27 10:58:04;;;;;;;5.60;1.30;;;;;;;20.37;64.35;102025.72;5069846;28;20044;-41
2021/08/27 11:00:41;;;;;;;7.25;1.52;;;;;;;20.34;65.01;102027.19;5059164;28;20053;-38
2021/08/27 11:03:13;;;;;;;6.22;1.25;;;;;;;20.45;65.55;102022.00;5070726;28;20052;-41
2021/08/27 11:05:43;;;;;;;5.47;1.42;;;;;;;20.59;65.59;102025.44;5073241;28;20114;-36
2021/08/27 11:08:14;;;;;;;4.47;1.50;;;;;;;20.79;64.81;102015.34;5073653;28;20041;-39
2021/08/27 11:11:21;;;;;;;5.13;1.35;;;;;;;21.32;64.22;102011.94;5073258;28;20155;-38
2021/08/27 11:13:51;;;;;;;4.97;1.40;;;;;;;21.79;61.46;102015.41;5073628;28;20053;-41
2021/08/27 11:16:26;;;;;;;7.18;1.65;;;;;;;22.28;60.57;102016.47;5073159;28;20608;-37
2021/08/27 11:18:54;;;;;;;4.32;1.17;;;;;;;22.75;59.54;102023.81;5073702;28;20139;-40
2021/08/27 11:21:30;;;;;;;5.93;1.35;;;;;;;23.17;58.07;102007.38;5072947;28;20518;-40
2021/08/27 11:24:16;;;;;;;7.13;1.30;;;;;;;23.48;56.40;102010.41;5072827;28;20072;-43
2021/08/27 11:26:47;;;;;;;8.18;1.60;;;;;;;23.30;56.25;102014.69;5073282;28;20131;-36
2021/08/27 11:29:31;;;;;;;4.93;1.60;;;;;;;23.11;55.39;102009.63;5073692;28;20055;-40
2021/08/27 11:32:08;;;;;;;6.78;1.60;;;;;;;22.89;55.60;102016.63;5072380;28;20053;-40
2021/08/27 11:34:55;;;;;;;6.22;1.55;;;;;;;22.75;55.37;102009.59;5062787;28;20475;-38
2021/08/27 11:37:25;;;;;;;6.72;1.42;;;;;;;22.80;55.78;102009.38;5072932;28;20092;-36
2021/08/27 11:39:53;;;;;;;7.05;1.10;;;;;;;22.81;55.37;102014.69;5073404;28;20045;-42
2021/08/27 11:42:22;;;;;;;5.90;1.63;;;;;;;23.02;54.95;102006.03;5072821;28;20059;-40